Time;durP1;ratioP1;P1;durP2;ratioP2;P2;SDS_P1;SDS_P2;PMS_P1;PMS_P2;Temp;Humidity;BMP_temperature;BMP_pressure;BME280_temperature;BME280_humidity;BME280_pressure;Samples;Min_cycle;Max_cycle;Signal;HPM_P1;HPM_P2
2022/11/07 00:01:56;;;;;;;7.82;6.32;;;;;;;21.03;59.95;99041.31;5088245;28;20051;-64
2022/11/07 00:04:23;;;;;;;9.10;6.25;;;;;;;21.03;59.98;99048.53;5088244;28;20220;-65
2022/11/07 00:06:51;;;;;;;8.13;5.85;;;;;;;20.94;59.88;99030.59;5087935;28;20052;-65
2022/11/07 00:09:18;;;;;;;10.20;6.43;;;;;;;21.02;60.02;99044.13;5088373;28;20048;-65
2022/11/07 00:11:44;;;;;;;9.60;5.63;;;;;;;21.01;59.68;99048.66;5088167;28;20090;-63
2022/11/07 00:14:12;;;;;;;6.78;5.22;;;;;;;21.00;59.88;99046.13;5088140;28;20044;-65
2022/11/07 00:16:38;;;;;;;8.52;5.85;;;;;;;21.02;59.74;99052.22;5088133;28;20101;-64
2022/11/07 00:19:05;;;;;;;8.45;6.20;;;;;;;20.92;59.73;99036.16;5088328;28;20276;-64
2022/11/07 00:21:32;;;;;;;8.07;6.18;;;;;;;20.98;59.80;99048.13;5087650;28;20308;-65
2022/11/07 00:24:00;;;;;;;9.23;6.25;;;;;;;20.97;59.58;99052.69;5087997;28;20098;-64
2022/11/07 00:26:27;;;;;;;7.47;5.97;;;;;;;20.90;59.60;99042.69;5088217;28;20044;-65
2022/11/07 00:28:53;;;;;;;8.05;5.75;;;;;;;20.96;59.59;99063.63;5087904;28;20044;-65
2022/11/07 00:31:20;;;;;;;13.07;7.18;;;;;;;20.96;59.44;99069.00;5087825;28;20098;-66
2022/11/07 00:33:47;;;;;;;9.43;6.68;;;;;;;20.96;59.42;99067.16;5087860;28;20052;-65
2022/11/07 00:36:21;;;;;;;6.03;5.00;;;;;;;20.94;58.42;99069.16;5087812;28;20036;-65
2022/11/07 00:38:47;;;;;;;7.50;6.35;;;;;;;20.94;59.63;99073.69;5087786;28;20052;-65
2022/11/07 00:41:16;;;;;;;7.45;5.78;;;;;;;20.93;59.09;99072.00;5087345;28;20056;-65
2022/11/07 00:43:43;;;;;;;7.35;6.07;;;;;;;20.94;59.39;99079.09;5087928;28;20048;-65
2022/11/07 00:46:11;;;;;;;7.75;5.85;;;;;;;20.93;59.33;99078.25;5087598;28;20098;-64
2022/11/07 00:48:38;;;;;;;7.07;5.85;;;;;;;20.44;59.46;99004.31;5087535;28;20086;-64
2022/11/07 00:51:06;;;;;;;7.00;5.72;;;;;;;20.92;59.08;99087.31;5087507;28;20049;-65
2022/11/07 00:53:33;;;;;;;7.40;5.35;;;;;;;20.90;59.02;99073.16;5087145;28;20300;-64
2022/11/07 00:56:01;;;;;;;9.45;6.85;;;;;;;20.91;59.43;99074.00;5087416;28;20109;-65
2022/11/07 00:58:29;;;;;;;10.27;6.18;;;;;;;20.92;59.13;99068.47;5087335;28;20153;-66
2022/11/07 01:00:56;;;;;;;9.20;6.40;;;;;;;20.94;59.37;99069.16;5087310;28;20055;-66
2022/11/07 01:06:07;;;;;;;;;;;;;;;20.86;57.91;99076.34;5086883;28;20110;-65
2022/11/07 01:08:33;;;;;;;12.13;6.75;;;;;;;20.88;59.71;99085.94;5087404;28;19959;-65
2022/11/07 01:11:04;;;;;;;15.77;7.40;;;;;;;20.91;59.02;99079.41;5087084;28;20055;-65
2022/11/07 01:13:32;;;;;;;9.00;6.28;;;;;;;20.66;59.30;99036.13;5087011;28;20094;-64
2022/11/07 01:15:59;;;;;;;9.18;6.25;;;;;;;20.93;59.48;99080.94;5087003;28;20040;-65
2022/11/07 01:18:26;;;;;;;8.27;6.18;;;;;;;20.93;59.42;99089.00;5086925;28;20086;-64
2022/11/07 01:20:53;;;;;;;10.48;6.70;;;;;;;20.93;59.32;99080.94;5086920;28;20074;-64
2022/11/07 01:23:21;;;;;;;8.82;5.78;;;;;;;20.94;59.49;99076.38;5086791;28;20040;-65
2022/11/07 01:25:48;;;;;;;10.07;5.57;;;;;;;20.93;59.20;99083.63;5086860;28;20040;-66
2022/11/07 01:28:15;;;;;;;9.85;5.63;;;;;;;20.96;59.17;99090.56;5086750;28;20307;-65
2022/11/07 01:30:44;;;;;;;6.95;5.30;;;;;;;20.95;59.13;99086.16;5086679;28;20226;-64
2022/11/07 01:33:11;;;;;;;8.23;6.35;;;;;;;20.94;59.10;99079.09;5086287;28;20310;-65
2022/11/07 01:35:38;;;;;;;9.50;6.00;;;;;;;20.93;59.06;99091.72;5086834;28;20094;-65
2022/11/07 01:38:05;;;;;;;9.40;5.90;;;;;;;20.93;59.03;99078.25;5086506;28;20036;-65
2022/11/07 01:41:19;;;;;;;19.05;14.93;;;;;;;20.93;59.22;99083.63;5085960;28;20056;-66
2022/11/07 01:43:19;;;;;;;21.65;16.00;;;;;;;20.92;59.06;99078.41;5085933;28;20075;-65
2022/11/07 01:45:47;;;;;;;30.45;21.15;;;;;;;20.92;59.16;99073.00;5086365;28;20040;-66
2022/11/07 01:48:14;;;;;;;28.02;21.77;;;;;;;20.92;59.25;99070.31;5086270;28;20048;-65
2022/11/07 01:50:41;;;;;;;27.05;19.65;;;;;;;20.90;59.11;99073.16;5085938;28;20079;-64
2022/11/07 01:53:07;;;;;;;27.25;18.70;;;;;;;20.90;59.16;99075.00;5086225;28;20040;-66
2022/11/07 01:55:35;;;;;;;23.50;17.98;;;;;;;20.90;58.97;99073.16;5086177;28;20045;-65
2022/11/07 01:58:07;;;;;;;24.48;17.92;;;;;;;20.90;58.75;99075.00;5086147;28;20109;-65
2022/11/07 02:00:35;;;;;;;22.50;16.85;;;;;;;20.89;59.11;99079.56;5086079;28;20044;-66
2022/11/07 02:03:07;;;;;;;23.58;19.13;;;;;;;20.89;58.62;99079.56;5085980;28;20228;-66
2022/11/07 02:05:38;;;;;;;42.35;31.60;;;;;;;20.89;58.91;99081.41;5085873;28;20060;-65
2022/11/07 02:08:07;;;;;;;46.17;34.90;;;;;;;20.88;58.87;99085.09;5085865;28;20044;-65
2022/11/07 02:10:35;;;;;;;56.03;42.17;;;;;;;20.90;58.90;99096.56;5085936;28;20037;-66
2022/11/07 02:13:02;;;;;;;58.92;44.72;;;;;;;20.89;58.94;99087.63;5085924;28;20052;-65
2022/11/07 02:15:29;;;;;;;58.17;43.15;;;;;;;20.89;58.70;99090.34;5085379;28;20295;-65
2022/11/07 02:17:58;;;;;;;52.38;39.20;;;;;;;20.89;58.64;99100.25;5085876;28;20090;-64
2022/11/07 02:20:26;;;;;;;50.08;37.40;;;;;;;20.89;58.55;99105.66;5086125;28;20169;-66
2022/11/07 02:22:56;;;;;;;50.03;35.72;;;;;;;20.88;58.54;99098.56;5085798;28;20238;-65
2022/11/07 02:25:25;;;;;;;48.70;35.90;;;;;;;20.88;58.72;99098.56;5085782;28;20052;-64
2022/11/07 02:27:56;;;;;;;45.83;35.90;;;;;;;20.87;58.63;99102.25;5085769;28;20063;-63
2022/11/07 02:30:26;;;;;;;41.78;32.03;;;;;;;20.88;58.69;99101.25;5085788;28;20097;-65
2022/11/07 02:32:53;;;;;;;54.35;33.33;;;;;;;20.87;58.65;99102.25;5085731;28;20208;-65
2022/11/07 02:35:36;;;;;;;43.95;32.78;;;;;;;20.88;57.60;99104.81;5085680;28;20110;-66
2022/11/07 02:38:04;;;;;;;41.15;31.17;;;;;;;20.89;58.58;99108.34;5085361;28;20052;-66
2022/11/07 02:40:33;;;;;;;41.72;31.23;;;;;;;20.88;58.56;99103.97;5085602;28;20097;-66
2022/11/07 02:43:00;;;;;;;43.10;32.15;;;;;;;20.90;58.77;99112.72;5036748;28;48700;-66
2022/11/07 02:45:30;;;;;;;65.03;40.92;;;;;;;20.88;58.43;99104.81;5019666;28;20091;-66
2022/11/07 02:47:57;;;;;;;43.78;30.95;;;;;;;20.87;58.44;99113.88;5045515;28;20099;-65
2022/11/07 02:50:24;;;;;;;60.15;38.88;;;;;;;20.88;58.25;99114.72;5045485;28;20053;-65
2022/11/07 02:52:51;;;;;;;46.13;33.28;;;;;;;20.87;58.63;99110.34;5045462;28;20045;-65
2022/11/07 02:55:18;;;;;;;39.90;28.52;;;;;;;20.78;58.59;99095.97;5045450;28;20240;-67
2022/11/07 02:57:46;;;;;;;86.10;54.30;;;;;;;20.87;58.32;99121.13;5045134;28;20297;-66
2022/11/07 03:00:15;;;;;;;42.13;30.27;;;;;;;20.86;58.43;99127.50;5045120;28;20046;-65
2022/11/07 03:02:45;;;;;;;43.38;30.13;;;;;;;20.85;58.35;99125.81;5045337;28;20042;-66
2022/11/07 03:05:45;;;;;;;83.32;54.58;;;;;;;21.83;58.41;99129.50;5041338;27;48579;-67
2022/11/07 03:08:11;;;;;;;74.70;44.35;;;;;;;21.83;58.55;99124.13;5062777;28;20115;-67
2022/11/07 03:10:38;;;;;;;47.17;31.42;;;;;;;21.82;58.25;99130.50;5063074;28;20045;-66
2022/11/07 03:13:05;;;;;;;45.50;31.83;;;;;;;21.82;58.45;99135.91;5063055;28;20045;-67
2022/11/07 03:15:31;;;;;;;41.42;30.40;;;;;;;21.83;58.27;99131.34;5062998;28;20049;-67
2022/11/07 03:17:59;;;;;;;38.40;28.40;;;;;;;21.83;58.54;99126.81;5062958;28;20049;-65
2022/11/07 03:20:25;;;;;;;33.80;26.50;;;;;;;21.81;58.30;99131.50;5063731;28;20068;-64
2022/11/07 03:22:53;;;;;;;33.17;25.60;;;;;;;21.81;58.51;99134.19;5062562;28;20358;-64
2022/11/07 03:25:20;;;;;;;35.95;26.48;;;;;;;21.80;58.56;99143.28;5062807;28;20087;-64
2022/11/07 03:27:47;;;;;;;34.85;25.92;;;;;;;21.21;58.47;99054.19;5062484;28;20292;-65
2022/11/07 03:30:15;;;;;;;53.45;33.10;;;;;;;21.79;58.58;99155.06;5062706;28;20056;-64
2022/11/07 03:32:41;;;;;;;63.88;35.67;;;;;;;21.74;58.61;99146.59;5062680;28;20185;-64
2022/11/07 03:35:09;;;;;;;47.28;28.77;;;;;;;21.78;58.61;99155.22;5063139;28;20095;-65
2022/11/07 03:37:36;;;;;;;42.60;29.45;;;;;;;21.76;58.44;99159.91;5062557;28;20053;-65
2022/11/07 03:40:05;;;;;;;68.70;38.78;;;;;;;21.64;58.44;99140.44;5062532;28;20045;-65
2022/11/07 03:42:38;;;;;;;49.47;28.60;;;;;;;21.00;57.90;99036.50;5062492;28;20099;-65
2022/11/07 03:45:05;;;;;;;39.70;27.70;;;;;;;21.73;58.68;99171.00;5062359;28;20227;-64
2022/11/07 03:47:34;;;;;;;35.08;25.08;;;;;;;21.72;58.66;99180.91;5062103;28;20343;-64
2022/11/07 03:50:00;;;;;;;33.42;24.50;;;;;;;21.73;58.37;99176.38;5062361;28;20057;-65
2022/11/07 03:52:27;;;;;;;33.38;23.23;;;;;;;21.72;58.35;99180.06;5062295;28;20107;-64
2022/11/07 03:54:54;;;;;;;31.80;23.75;;;;;;;21.73;58.63;99189.84;5062296;28;20045;-64
2022/11/07 03:57:22;;;;;;;29.13;22.65;;;;;;;21.72;58.38;99191.69;5061939;28;20045;-66
2022/11/07 03:59:49;;;;;;;285.58;163.50;;;;;;;21.62;58.72;99173.91;5062139;28;20311;-64
2022/11/07 04:02:16;;;;;;;58.47;35.97;;;;;;;21.71;58.59;99199.91;5061779;28;20041;-63
2022/11/07 04:04:42;;;;;;;30.67;20.38;;;;;;;21.53;58.17;99201.75;5061682;28;20053;-66
2022/11/07 04:07:09;;;;;;;30.60;21.05;;;;;;;21.53;57.87;99205.28;5061983;28;20057;-65
2022/11/07 04:09:36;;;;;;;27.10;21.20;;;;;;;21.55;58.12;99205.97;5061977;28;20192;-64
2022/11/07 04:17:32;;;;;;;24.73;19.88;;;;;;;21.58;58.14;99200.28;5048410;28;20045;-66
2022/11/07 04:19:59;;;;;;;26.85;20.13;;;;;;;21.59;58.03;99198.44;5048431;28;20189;-66
2022/11/07 04:22:26;;;;;;;26.70;20.30;;;;;;;21.59;57.93;99193.91;5048126;28;20041;-67
2022/11/07 04:24:53;;;;;;;25.73;19.48;;;;;;;21.58;57.93;99184.13;5048026;28;20068;-66
2022/11/07 04:30:18;;;;;;;22.25;16.85;;;;;;;21.55;57.95;99207.81;5048286;28;20049;-66
2022/11/07 04:32:46;;;;;;;26.35;19.08;;;;;;;21.55;58.12;99207.81;5048444;28;20111;-67
2022/11/07 04:35:12;;;;;;;24.52;19.67;;;;;;;21.53;57.92;99216.03;5048161;28;20048;-66
2022/11/07 04:37:39;;;;;;;23.02;18.27;;;;;;;21.54;58.08;99208.81;5047891;28;20051;-66
2022/11/07 04:40:07;;;;;;;27.60;19.58;;;;;;;21.54;58.06;99208.81;5047810;28;20053;-66
2022/11/07 04:42:34;;;;;;;25.05;18.35;;;;;;;21.53;58.51;99224.13;5047816;28;20064;-66
2022/11/07 04:45:01;;;;;;;24.23;19.50;;;;;;;21.54;57.98;99219.59;5047973;28;20099;-66
2022/11/07 04:47:29;;;;;;;23.63;18.05;;;;;;;21.53;57.85;99228.66;5047948;28;20053;-66
2022/11/07 04:49:55;;;;;;;23.85;18.20;;;;;;;21.52;57.98;99227.81;5048194;28;20217;-66
2022/11/07 04:52:22;;;;;;;23.85;17.85;;;;;;;21.50;58.19;99230.66;5047615;28;20324;-67
2022/11/07 04:54:49;;;;;;;21.23;16.05;;;;;;;21.52;58.17;99237.72;5047518;28;20056;-66
2022/11/07 04:57:15;;;;;;;23.02;17.35;;;;;;;21.51;58.30;99236.88;5048055;28;20200;-66
2022/11/07 04:59:42;;;;;;;25.02;19.52;;;;;;;21.51;58.08;99239.56;5048055;28;20219;-66
2022/11/07 05:02:10;;;;;;;23.52;17.63;;;;;;;21.49;58.27;99242.41;5047487;28;20045;-67
2022/11/07 05:04:38;;;;;;;23.58;17.85;;;;;;;21.42;57.98;99235.94;5047192;28;20057;-66
2022/11/07 05:07:05;;;;;;;21.50;16.77;;;;;;;21.48;58.21;99242.56;5047623;28;20045;-66
2022/11/07 05:09:33;;;;;;;22.42;16.80;;;;;;;21.48;58.24;99239.88;5047317;28;20057;-66
2022/11/07 05:12:00;;;;;;;21.95;16.95;;;;;;;21.48;58.31;99246.13;5047189;28;20041;-66
2022/11/07 05:14:26;;;;;;;24.55;17.75;;;;;;;21.47;58.18;99252.50;5047634;28;20041;-66
2022/11/07 05:16:54;;;;;;;20.33;16.65;;;;;;;21.48;58.32;99247.97;5047578;28;20053;-66
2022/11/07 05:19:21;;;;;;;21.25;17.05;;;;;;;21.46;58.09;99250.78;5047367;28;20056;-67
2022/11/07 05:23:11;;;;;;;23.77;17.30;;;;;;;21.46;58.15;99260.72;5047060;28;20045;-66
2022/11/07 05:24:35;;;;;;;21.17;15.93;;;;;;;21.43;58.25;99259.16;5046683;28;20053;-66
2022/11/07 05:27:02;;;;;;;21.38;15.95;;;;;;;21.44;58.47;99265.41;5046950;28;20045;-66
2022/11/07 05:29:29;;;;;;;23.13;15.95;;;;;;;21.44;58.15;99265.41;5047789;28;20041;-66
2022/11/07 05:31:55;;;;;;;19.45;15.27;;;;;;;21.44;58.22;99257.31;5047108;28;20057;-67
2022/11/07 05:34:22;;;;;;;19.52;15.63;;;;;;;21.44;58.23;99260.03;5047045;28;20045;-66
2022/11/07 05:36:50;;;;;;;21.95;16.13;;;;;;;21.44;58.05;99263.56;5046894;28;20045;-66
2022/11/07 05:39:17;;;;;;;18.83;14.55;;;;;;;21.43;58.13;99267.25;5047013;28;20221;-66
2022/11/07 05:41:43;;;;;;;23.38;16.00;;;;;;;21.43;58.00;99277.16;5046873;28;20049;-66
2022/11/07 05:44:10;;;;;;;20.90;14.85;;;;;;;21.43;58.32;99285.25;5046738;28;20045;-65
2022/11/07 05:46:37;;;;;;;20.33;15.80;;;;;;;21.42;57.97;99291.63;5046777;28;20041;-66
2022/11/07 05:49:03;;;;;;;19.05;13.95;;;;;;;21.43;58.17;99287.94;5046757;28;20232;-66
2022/11/07 05:51:30;;;;;;;22.15;14.07;;;;;;;21.42;57.92;99297.00;5046681;28;20053;-66
2022/11/07 05:53:58;;;;;;;18.92;14.65;;;;;;;21.43;57.88;99302.25;5046970;28;20063;-66
2022/11/07 05:56:25;;;;;;;20.00;14.10;;;;;;;21.42;57.90;99305.06;5046896;28;20217;-66
2022/11/07 05:58:51;;;;;;;19.20;15.63;;;;;;;21.41;58.24;99309.63;5046854;28;20041;-66
2022/11/07 06:01:18;;;;;;;21.50;15.10;;;;;;;21.40;58.08;99312.47;5046784;28;20053;-66
2022/11/07 06:03:45;;;;;;;19.83;15.60;;;;;;;21.40;58.17;99315.16;5046159;28;20057;-66
2022/11/07 06:06:11;;;;;;;21.38;13.93;;;;;;;21.40;58.13;99315.16;5046446;28;20049;-66
2022/11/07 06:08:38;;;;;;;18.42;14.52;;;;;;;21.39;58.03;99319.69;5046618;28;20053;-66
2022/11/07 06:11:06;;;;;;;21.42;15.50;;;;;;;21.38;58.08;99318.00;5046654;28;20057;-66
2022/11/07 06:13:33;;;;;;;18.88;13.98;;;;;;;21.38;57.93;99309.91;5046357;28;20100;-66
2022/11/07 06:15:59;;;;;;;18.80;14.32;;;;;;;21.37;57.94;99315.44;5046254;28;20103;-66
2022/11/07 06:18:26;;;;;;;19.35;14.13;;;;;;;21.37;57.97;99327.06;5046242;28;20052;-66
2022/11/07 06:20:53;;;;;;;17.95;13.32;;;;;;;21.37;58.20;99323.53;5046538;28;20041;-66
2022/11/07 06:23:19;;;;;;;20.70;15.18;;;;;;;21.36;58.08;99336.13;5045898;28;20111;-66
2022/11/07 06:25:46;;;;;;;17.75;13.85;;;;;;;21.36;58.22;99333.44;5046338;28;20041;-66
2022/11/07 06:28:15;;;;;;;18.35;14.00;;;;;;;21.36;57.94;99338.81;5045857;28;20301;-66
2022/11/07 06:30:42;;;;;;;17.73;14.23;;;;;;;21.36;58.09;99340.66;5046043;28;20052;-66
2022/11/07 06:33:11;;;;;;;19.10;14.60;;;;;;;21.35;57.97;99339.81;5045978;28;20100;-66
2022/11/07 06:35:38;;;;;;;16.30;12.13;;;;;;;21.36;58.40;99348.75;5045591;28;20052;-66
2022/11/07 06:38:07;;;;;;;17.88;12.48;;;;;;;21.35;58.14;99361.34;5045621;28;20115;-66
2022/11/07 06:40:34;;;;;;;16.92;12.65;;;;;;;21.35;58.27;99360.50;5045635;28;20343;-66
2022/11/07 06:43:09;;;;;;;20.10;13.82;;;;;;;21.34;57.89;99365.03;5046083;28;20041;-66
2022/11/07 06:45:37;;;;;;;15.70;12.32;;;;;;;21.34;57.92;99372.25;5045459;28;20048;-66
2022/11/07 06:48:05;;;;;;;16.77;14.23;;;;;;;21.34;58.16;99373.09;5045955;28;20045;-66
2022/11/07 06:50:31;;;;;;;14.50;12.55;;;;;;;21.34;58.14;99366.88;5045814;28;20078;-66
2022/11/07 06:53:01;;;;;;;14.43;12.07;;;;;;;21.34;57.89;99369.56;5045791;28;20053;-67
2022/11/07 06:55:28;;;;;;;16.35;12.88;;;;;;;21.34;58.23;99375.78;5045474;28;20041;-66
2022/11/07 06:57:57;;;;;;;15.18;12.13;;;;;;;21.34;57.96;99372.25;5045427;28;20064;-66
2022/11/07 07:00:24;;;;;;;16.38;12.43;;;;;;;21.33;57.99;99366.03;5045407;28;20053;-66
2022/11/07 07:02:52;;;;;;;20.40;14.13;;;;;;;21.33;58.26;99366.03;5045697;28;20297;-65
2022/11/07 07:05:19;;;;;;;18.85;13.40;;;;;;;21.34;58.01;99374.94;5045139;28;20053;-65
2022/11/07 07:07:46;;;;;;;18.27;11.30;;;;;;;21.35;58.19;99373.94;5045632;28;20061;-66
2022/11/07 07:10:13;;;;;;;17.13;12.07;;;;;;;21.35;58.08;99373.94;5045303;28;20045;-66
2022/11/07 07:12:39;;;;;;;16.13;11.07;;;;;;;21.34;58.28;99383.88;5045272;28;20053;-65
2022/11/07 07:15:07;;;;;;;14.48;11.30;;;;;;;21.35;58.12;99387.41;5045831;28;20056;-66
2022/11/07 07:17:34;;;;;;;14.85;11.45;;;;;;;21.34;58.28;99383.03;5045828;28;20041;-66
2022/11/07 07:20:03;;;;;;;15.23;11.68;;;;;;;21.34;58.27;99389.25;5045203;28;20041;-66
2022/11/07 07:22:29;;;;;;;15.40;11.98;;;;;;;21.35;58.20;99376.66;5045784;28;20112;-66
2022/11/07 07:24:56;;;;;;;16.45;12.18;;;;;;;21.34;58.33;99386.56;5045170;28;20052;-66
2022/11/07 07:27:23;;;;;;;15.88;10.98;;;;;;;21.34;58.11;99381.19;5045721;28;20045;-66
2022/11/07 07:29:52;;;;;;;14.70;10.75;;;;;;;21.34;58.17;99391.09;5045626;28;20067;-67
2022/11/07 07:32:19;;;;;;;13.70;10.85;;;;;;;21.35;58.11;99395.50;5045403;28;20079;-66
2022/11/07 07:34:45;;;;;;;14.48;11.45;;;;;;;21.34;58.05;99401.84;5045013;28;20208;-66
2022/11/07 07:37:13;;;;;;;14.98;11.13;;;;;;;21.33;57.99;99395.63;5045057;28;20064;-66
2022/11/07 07:39:40;;;;;;;14.00;11.07;;;;;;;21.35;58.31;99400.88;5045515;28;20050;-66
2022/11/07 07:42:07;;;;;;;14.93;11.45;;;;;;;21.35;58.16;99395.50;5045500;28;20049;-65
2022/11/07 07:44:33;;;;;;;14.00;11.23;;;;;;;21.34;58.07;99397.31;5045275;28;20305;-66
2022/11/07 07:47:00;;;;;;;13.75;10.88;;;;;;;21.35;57.89;99392.78;5044794;28;20045;-65
2022/11/07 07:49:27;;;;;;;14.50;11.73;;;;;;;21.34;58.19;99386.56;5045427;28;20041;-65
2022/11/07 07:51:54;;;;;;;13.52;10.75;;;;;;;21.34;58.13;99401.84;5047634;28;20045;-66
2022/11/07 07:54:22;;;;;;;14.25;11.32;;;;;;;21.34;58.04;99402.72;5048618;28;20096;-65
2022/11/07 07:56:48;;;;;;;14.05;10.68;;;;;;;21.33;58.22;99402.84;5048838;28;20284;-66
2022/11/07 07:59:15;;;;;;;13.43;10.80;;;;;;;21.33;58.09;99409.09;5048678;28;20200;-66
2022/11/07 08:01:42;;;;;;;15.40;11.82;;;;;;;21.33;58.17;99408.25;5048475;28;20056;-66
2022/11/07 08:04:08;;;;;;;14.93;11.75;;;;;;;21.33;58.15;99419.84;5048437;28;20049;-65
2022/11/07 08:06:36;;;;;;;15.52;10.93;;;;;;;21.34;58.10;99409.94;5048617;28;20103;-66
2022/11/07 08:09:03;;;;;;;13.02;9.57;;;;;;;21.32;58.06;99407.38;5048399;28;20037;-66
2022/11/07 08:11:32;;;;;;;14.15;10.68;;;;;;;20.75;58.00;99314.13;5048649;28;20189;-66
2022/11/07 08:13:59;;;;;;;14.20;10.52;;;;;;;21.33;58.22;99414.47;5048257;28;20055;-66
2022/11/07 08:16:25;;;;;;;14.52;10.85;;;;;;;21.32;58.09;99406.53;5048501;28;20033;-65
2022/11/07 08:18:52;;;;;;;15.60;11.88;;;;;;;21.32;58.27;99409.22;5048817;28;20049;-66
2022/11/07 08:21:19;;;;;;;14.95;11.25;;;;;;;21.32;58.26;99404.69;5048435;28;20111;-65
2022/11/07 08:23:46;;;;;;;13.07;9.65;;;;;;;21.32;58.01;99409.22;5048394;28;20300;-65
2022/11/07 08:26:12;;;;;;;12.20;9.57;;;;;;;21.30;58.03;99395.91;5048517;28;20064;-66
2022/11/07 08:28:41;;;;;;;13.35;10.32;;;;;;;21.31;58.24;99404.84;5048314;28;20053;-65
2022/11/07 08:31:10;;;;;;;12.13;10.32;;;;;;;21.30;58.18;99403.16;5048532;28;20041;-65
2022/11/07 08:33:38;;;;;;;14.77;10.13;;;;;;;21.30;58.12;99401.31;5048221;28;20045;-66
2022/11/07 08:36:06;;;;;;;13.70;10.15;;;;;;;21.30;58.09;99398.63;5047842;28;20052;-65
2022/11/07 08:38:35;;;;;;;11.48;9.25;;;;;;;21.29;58.36;99415.75;5048321;28;20049;-66
2022/11/07 08:41:02;;;;;;;13.63;11.00;;;;;;;21.30;58.29;99419.28;5048013;28;20045;-66
2022/11/07 08:43:29;;;;;;;14.50;10.65;;;;;;;21.31;58.27;99412.91;5048740;28;20154;-66
2022/11/07 08:45:57;;;;;;;14.38;9.90;;;;;;;21.30;58.29;99422.84;5048747;28;20072;-66
2022/11/07 08:48:24;;;;;;;13.07;10.18;;;;;;;21.30;58.23;99425.53;5047943;28;20037;-66
2022/11/07 08:50:55;;;;;;;11.93;9.20;;;;;;;21.30;58.28;99422.00;5047863;28;20053;-66
2022/11/07 08:53:23;;;;;;;12.80;9.15;;;;;;;21.30;58.40;99428.22;5048164;28;20063;-66
2022/11/07 08:55:50;;;;;;;12.40;9.27;;;;;;;21.21;58.04;99420.97;5047267;28;20041;-66
2022/11/07 08:58:17;;;;;;;11.32;9.10;;;;;;;21.30;58.04;99441.66;5047378;28;20191;-66
2022/11/07 09:00:44;;;;;;;12.90;10.05;;;;;;;21.31;58.12;99445.22;5047305;28;20042;-66
2022/11/07 09:03:13;;;;;;;13.00;10.30;;;;;;;21.31;58.23;99448.75;5047864;28;20041;-67
2022/11/07 09:05:40;;;;;;;12.27;10.38;;;;;;;21.32;58.14;99449.59;5047161;28;20121;-67
2022/11/07 09:08:06;;;;;;;11.32;8.70;;;;;;;21.31;58.15;99446.06;5047620;28;20037;-66
2022/11/07 09:10:33;;;;;;;10.35;8.20;;;;;;;21.31;58.12;99450.59;5047218;28;20056;-67
2022/11/07 09:13:00;;;;;;;10.00;7.90;;;;;;;21.31;58.18;99445.22;5047852;28;20049;-68
2022/11/07 09:15:26;;;;;;;11.95;9.38;;;;;;;20.95;58.29;99387.59;5047784;28;20095;-66
2022/11/07 09:17:53;;;;;;;11.95;9.38;;;;;;;21.32;58.38;99446.91;5047327;28;20046;-66
2022/11/07 09:20:22;;;;;;;13.48;9.48;;;;;;;20.38;58.12;99287.97;5047093;28;20060;-66
2022/11/07 09:22:48;;;;;;;11.93;9.25;;;;;;;21.33;58.39;99446.78;5047073;28;20056;-66
2022/11/07 09:25:15;;;;;;;13.35;9.48;;;;;;;21.33;58.16;99448.59;5047435;28;20166;-66
2022/11/07 09:27:42;;;;;;;9.80;7.53;;;;;;;21.34;58.14;99444.94;5046930;28;20053;-66
2022/11/07 09:30:09;;;;;;;11.38;9.15;;;;;;;21.35;58.21;99444.78;5046712;28;20099;-66
2022/11/07 09:32:36;;;;;;;11.98;9.60;;;;;;;21.36;58.02;99443.78;5047438;28;20045;-67
2022/11/07 09:35:03;;;;;;;15.27;9.50;;;;;;;21.39;58.03;99445.34;5047069;28;20053;-66
2022/11/07 09:37:31;;;;;;;10.38;8.68;;;;;;;21.39;58.17;99439.97;5047328;28;20038;-66
2022/11/07 09:39:58;;;;;;;9.13;7.95;;;;;;;21.39;58.20;99432.72;5046806;28;20049;-67
2022/11/07 09:42:36;;;;;;;11.05;8.15;;;;;;;21.42;57.81;99437.81;5046807;28;20053;-66
2022/11/07 09:45:03;;;;;;;9.13;7.38;;;;;;;21.49;58.02;99444.31;5046893;28;20099;-67
2022/11/07 09:47:36;;;;;;;8.98;7.10;;;;;;;21.49;57.68;99438.09;5046976;28;20087;-67
2022/11/07 09:50:07;;;;;;;12.43;9.20;;;;;;;21.50;57.87;99437.94;5046702;28;20045;-67
2022/11/07 09:52:43;;;;;;;10.70;8.32;;;;;;;21.50;57.98;99423.63;5046549;28;20174;-67
2022/11/07 09:55:17;;;;;;;10.27;8.43;;;;;;;21.53;57.66;99431.41;5046696;28;20047;-67
2022/11/07 09:57:43;;;;;;;10.25;7.75;;;;;;;21.59;57.80;99427.28;5046647;28;20049;-67
2022/11/07 10:00:16;;;;;;;9.38;7.78;;;;;;;21.64;57.57;99435.78;5046318;28;20042;-67
2022/11/07 10:02:45;;;;;;;11.10;7.65;;;;;;;21.69;57.64;99425.41;5046898;28;20049;-66
2022/11/07 10:05:16;;;;;;;9.63;7.50;;;;;;;21.74;57.57;99428.50;5046116;28;20053;-66
2022/11/07 10:07:58;;;;;;;12.15;8.30;;;;;;;21.78;57.36;99424.53;5046143;28;20041;-67
2022/11/07 10:10:37;;;;;;;9.15;7.43;;;;;;;21.81;57.31;99425.09;5043783;28;20317;-67
2022/11/07 10:13:45;;;;;;;8.98;7.15;;;;;;;21.85;57.33;99419.41;5045702;28;20363;-67
2022/11/07 10:16:18;;;;;;;9.18;7.55;;;;;;;21.85;57.51;99424.78;5046576;28;20358;-66
2022/11/07 10:19:00;;;;;;;9.32;7.38;;;;;;;21.90;57.25;99419.81;5046151;28;20297;-66
2022/11/07 10:21:34;;;;;;;9.20;7.28;;;;;;;21.93;57.27;99417.66;5046122;28;20060;-67
2022/11/07 10:24:09;;;;;;;;;;;;;;;21.90;57.32;99412.56;5046428;28;20289;-67
2022/11/07 10:26:37;;;;;;;10.70;6.97;;;;;;;21.95;57.45;99420.22;5045829;28;19927;-66
2022/11/07 10:29:13;;;;;;;9.43;7.72;;;;;;;22.00;57.23;99415.22;5045916;28;20045;-66
2022/11/07 10:31:43;;;;;;;9.15;7.00;;;;;;;22.02;57.19;99414.09;5046081;28;20056;-66
2022/11/07 10:34:16;;;;;;;9.52;7.07;;;;;;;22.03;57.38;99415.81;5045859;28;20049;-67
2022/11/07 10:36:43;;;;;;;10.93;7.00;;;;;;;22.05;57.31;99413.81;5045909;28;20049;-67
2022/11/07 10:39:17;;;;;;;8.80;6.90;;;;;;;22.06;57.27;99410.13;5045762;28;20095;-67
2022/11/07 10:41:51;;;;;;;8.05;6.30;;;;;;;22.09;57.34;99414.34;5045731;28;20067;-66
2022/11/07 10:44:23;;;;;;;8.75;6.65;;;;;;;22.11;57.24;99406.97;5046102;28;20041;-67
2022/11/07 10:46:50;;;;;;;9.05;6.45;;;;;;;21.18;57.22;99246.38;5046038;28;20057;-67
2022/11/07 10:49:19;;;;;;;8.82;7.05;;;;;;;22.14;57.19;99402.13;5045820;28;20041;-67
2022/11/07 10:51:46;;;;;;;10.98;7.60;;;;;;;22.16;57.21;99399.28;5045754;28;20045;-67
2022/11/07 10:54:21;;;;;;;10.38;7.10;;;;;;;22.19;57.06;99393.59;5045399;28;20075;-67
2022/11/07 10:56:50;;;;;;;8.68;6.80;;;;;;;22.20;57.14;99397.97;5045650;28;20049;-67
2022/11/07 10:59:24;;;;;;;8.73;6.75;;;;;;;22.21;57.05;99391.59;5045539;28;20037;-66
2022/11/07 11:01:53;;;;;;;9.82;7.55;;;;;;;22.24;57.23;99388.59;5046439;28;20173;-67
2022/11/07 11:04:23;;;;;;;10.48;8.23;;;;;;;22.27;57.07;99392.84;5045429;28;20049;-67
2022/11/07 11:07:02;;;;;;;8.63;6.82;;;;;;;22.26;56.90;99383.91;5045083;28;20041;-67
2022/11/07 11:09:31;;;;;;;9.23;6.97;;;;;;;22.23;57.26;99372.56;5045257;28;20052;-67
2022/11/07 11:11:59;;;;;;;9.57;6.85;;;;;;;22.21;57.51;99377.28;5045251;28;20041;-66
2022/11/07 11:14:25;;;;;;;8.38;6.55;;;;;;;22.21;57.62;99380.81;5045224;28;20320;-66
2022/11/07 11:16:55;;;;;;;8.05;6.68;;;;;;;22.25;57.43;99376.81;5045415;28;20376;-66
2022/11/07 11:19:25;;;;;;;10.07;6.55;;;;;;;22.28;57.38;99376.50;5045556;28;20045;-67
2022/11/07 11:21:54;;;;;;;9.07;7.15;;;;;;;22.30;57.39;99374.50;5045403;28;20284;-67
2022/11/07 11:24:37;;;;;;;8.27;6.82;;;;;;;22.29;56.96;99369.28;5045071;28;20244;-66
2022/11/07 11:27:10;;;;;;;8.38;6.00;;;;;;;22.30;57.20;99374.50;5046525;28;20064;-67
2022/11/07 11:29:43;;;;;;;8.85;7.18;;;;;;;22.31;57.27;99373.50;5049143;28;20045;-67
2022/11/07 11:32:21;;;;;;;8.93;6.88;;;;;;;22.27;57.37;99376.66;5049029;28;20053;-67
2022/11/07 11:34:55;;;;;;;8.18;6.60;;;;;;;22.27;57.31;99368.56;5049546;28;20041;-67
2022/11/07 11:37:26;;;;;;;9.32;6.93;;;;;;;22.32;57.40;99375.19;5049154;28;20099;-67
2022/11/07 11:40:08;;;;;;;9.93;6.55;;;;;;;22.33;57.19;99367.97;5049172;28;20216;-67